Time;durP1;ratioP1;P1;durP2;ratioP2;P2;SDS_P1;SDS_P2;PMS_P1;PMS_P2;Temp;Humidity;BMP_temperature;BMP_pressure;BME280_temperature;BME280_humidity;BME280_pressure;Samples;Min_cycle;Max_cycle;Signal;HPM_P1;HPM_P2
2023/06/06 00:01:14;;;;;;;;;10.75;9.75;;;;;;;;5098047;27;45297;-72
2023/06/06 00:03:41;;;;;;;;;9.75;9.00;;;;;;;;5089250;27;45442;-73
2023/06/06 00:06:06;;;;;;;;;12.25;10.50;;;;;;;;5100705;27;45420;-73
2023/06/06 00:08:33;;;;;;;;;13.50;11.75;;;;;;;;5099136;27;45465;-73
2023/06/06 00:10:58;;;;;;;;;13.50;11.00;;;;;;;;5100390;27;45458;-73
2023/06/06 00:13:27;;;;;;;;;13.25;10.75;;;;;;;;5100240;27;45458;-72
2023/06/06 00:15:53;;;;;;;;;10.50;9.50;;;;;;;;5100575;27;45400;-72
2023/06/06 00:18:19;;;;;;;;;12.50;9.25;;;;;;;;5100211;27;46166;-72
2023/06/06 00:20:45;;;;;;;;;12.25;11.00;;;;;;;;5097345;27;45938;-72
2023/06/06 00:23:10;;;;;;;;;10.25;10.25;;;;;;;;5098806;27;45168;-72
2023/06/06 00:25:36;;;;;;;;;12.25;9.00;;;;;;;;5103920;27;46141;-72
2023/06/06 00:28:01;;;;;;;;;9.00;8.67;;;;;;;;5104054;27;45321;-72
2023/06/06 00:30:26;;;;;;;;;15.75;12.50;;;;;;;;5100086;27;45256;-72
2023/06/06 00:32:51;;;;;;;;;13.00;12.00;;;;;;;;5100101;27;45234;-72
2023/06/06 00:35:17;;;;;;;;;13.33;10.00;;;;;;;;5097840;27;45607;-73
2023/06/06 00:37:42;;;;;;;;;11.00;9.33;;;;;;;;5099893;27;46298;-73
2023/06/06 00:40:09;;;;;;;;;12.25;10.25;;;;;;;;5099066;27;45337;-72
2023/06/06 00:42:34;;;;;;;;;14.00;12.50;;;;;;;;5101165;27;45313;-72
2023/06/06 00:44:59;;;;;;;;;12.50;11.75;;;;;;;;5112073;27;46085;-72
2023/06/06 00:47:25;;;;;;;;;11.00;10.00;;;;;;;;5108496;27;45650;-73
2023/06/06 00:49:51;;;;;;;;;14.75;12.25;;;;;;;;5100748;27;45788;-73
2023/06/06 00:52:16;;;;;;;;;10.50;10.00;;;;;;;;5112610;27;45302;-73
2023/06/06 00:54:42;;;;;;;;;11.75;10.75;;;;;;;;5107076;27;46776;-72
2023/06/06 00:57:08;;;;;;;;;10.75;10.00;;;;;;;;5103330;27;45572;-72
2023/06/06 00:59:34;;;;;;;;;12.75;10.00;;;;;;;;5103269;27;45227;-72
2023/06/06 01:02:03;;;;;;;;;16.00;11.50;;;;;;;;5103435;27;45282;-72
2023/06/06 01:04:29;;;;;;;;;10.25;9.50;;;;;;;;5089151;27;45518;-73
2023/06/06 01:06:55;;;;;;;;;17.00;10.50;;;;;;;;5105513;27;45346;-73
2023/06/06 01:09:20;;;;;;;;;11.00;9.25;;;;;;;;5112477;27;45588;-72
2023/06/06 01:12:06;;;;;;;;;9.25;9.25;;;;;;;;5103165;27;45364;-73
2023/06/06 01:14:31;;;;;;;;;13.00;10.25;;;;;;;;5114844;27;45342;-73
2023/06/06 01:16:59;;;;;;;;;12.00;10.00;;;;;;;;5103213;27;45409;-73
2023/06/06 01:19:27;;;;;;;;;10.75;9.00;;;;;;;;5102220;27;47113;-73
2023/06/06 01:21:54;;;;;;;;;12.25;11.75;;;;;;;;5100041;27;45598;-73
2023/06/06 01:24:19;;;;;;;;;14.75;10.50;;;;;;;;5101121;27;45575;-73
2023/06/06 01:26:45;;;;;;;;;9.25;8.25;;;;;;;;5100963;27;45676;-73
2023/06/06 01:29:10;;;;;;;;;12.50;10.00;;;;;;;;5102770;27;45539;-73
2023/06/06 01:31:37;;;;;;;;;14.67;11.00;;;;;;;;5101372;27;45499;-73
2023/06/06 01:34:21;;;;;;;;;10.50;9.25;;;;;;;;5099740;27;46185;-73
2023/06/06 01:36:48;;;;;;;;;13.50;10.75;;;;;;;;5111399;27;47186;-72
2023/06/06 01:39:15;;;;;;;;;15.00;9.00;;;;;;;;5102702;27;45634;-72
2023/06/06 01:41:41;;;;;;;;;12.75;11.00;;;;;;;;5111141;27;45328;-72
2023/06/06 01:44:08;;;;;;;;;11.25;9.75;;;;;;;;5114623;27;45206;-72
2023/06/06 01:46:35;;;;;;;;;12.50;11.00;;;;;;;;5101090;27;46203;-72
2023/06/06 01:49:00;;;;;;;;;12.25;11.00;;;;;;;;5102300;27;45397;-72
2023/06/06 01:51:28;;;;;;;;;14.50;9.75;;;;;;;;5102149;27;45525;-73
2023/06/06 01:53:56;;;;;;;;;12.25;10.25;;;;;;;;5100723;27;45321;-73
2023/06/06 01:56:21;;;;;;;;;12.25;10.25;;;;;;;;5101555;27;46928;-73
2023/06/06 01:58:48;;;;;;;;;11.50;11.50;;;;;;;;5102310;27;45379;-73
2023/06/06 02:01:13;;;;;;;;;14.75;13.00;;;;;;;;5108729;27;45259;-72
2023/06/06 02:03:38;;;;;;;;;16.00;13.33;;;;;;;;5102148;27;45467;-72
2023/06/06 02:06:04;;;;;;;;;17.00;14.00;;;;;;;;5101792;27;45384;-72
2023/06/06 02:08:29;;;;;;;;;15.25;12.50;;;;;;;;5108618;27;45424;-72
2023/06/06 02:10:55;;;;;;;;;15.75;12.75;;;;;;;;5109937;27;45427;-72
2023/06/06 02:13:21;;;;;;;;;13.25;8.00;;;;;;;;5110014;27;45434;-72
2023/06/06 02:15:46;;;;;;;;;17.00;14.67;;;;;;;;5101906;27;45356;-72
2023/06/06 02:18:11;;;;;;;;;16.00;12.67;;;;;;;;5102209;27;45374;-73
2023/06/06 02:20:36;;;;;;;;;15.75;12.50;;;;;;;;5100006;27;45965;-73
2023/06/06 02:23:02;;;;;;;;;13.00;10.00;;;;;;;;5097308;27;45719;-72
2023/06/06 02:25:27;;;;;;;;;18.00;15.33;;;;;;;;5101805;27;46213;-72
2023/06/06 02:27:53;;;;;;;;;17.00;14.00;;;;;;;;5100581;27;45262;-72
2023/06/06 02:30:19;;;;;;;;;18.00;14.25;;;;;;;;5102062;27;45372;-72
2023/06/06 02:32:45;;;;;;;;;13.75;9.50;;;;;;;;5101866;27;45500;-72
2023/06/06 02:35:10;;;;;;;;;17.75;15.50;;;;;;;;5101616;27;46206;-72
2023/06/06 02:37:35;;;;;;;;;19.25;13.50;;;;;;;;5099587;27;45707;-72
2023/06/06 02:40:10;;;;;;;;;17.33;14.00;;;;;;;;5101701;27;45226;-72
2023/06/06 02:42:38;;;;;;;;;17.00;14.25;;;;;;;;5101221;27;45327;-72
2023/06/06 02:45:03;;;;;;;;;16.00;13.75;;;;;;;;5101731;27;45454;-72
2023/06/06 02:47:29;;;;;;;;;14.75;12.50;;;;;;;;5100179;27;45410;-73
2023/06/06 02:49:55;;;;;;;;;19.25;15.00;;;;;;;;5101515;27;45293;-72
2023/06/06 02:52:21;;;;;;;;;14.50;13.75;;;;;;;;5101490;27;45313;-72
2023/06/06 02:54:46;;;;;;;;;14.50;12.75;;;;;;;;5114367;27;45354;-72
2023/06/06 02:57:11;;;;;;;;;17.00;14.67;;;;;;;;5102721;27;45487;-72
2023/06/06 02:59:36;;;;;;;;;13.00;10.00;;;;;;;;5101298;27;45456;-72
2023/06/06 03:02:03;;;;;;;;;18.00;15.67;;;;;;;;5101263;27;45445;-72
2023/06/06 03:04:28;;;;;;;;;17.25;15.50;;;;;;;;5112087;27;45654;-72
2023/06/06 03:06:53;;;;;;;;;21.33;14.00;;;;;;;;5099205;27;45362;-72
2023/06/06 03:09:19;;;;;;;;;13.75;13.00;;;;;;;;5099915;27;45441;-72
2023/06/06 03:11:44;;;;;;;;;15.75;13.50;;;;;;;;5111979;27;45652;-72
2023/06/06 03:14:10;;;;;;;;;18.00;15.50;;;;;;;;5109088;27;46068;-72
2023/06/06 03:16:35;;;;;;;;;22.00;19.50;;;;;;;;5106368;27;45208;-72
2023/06/06 03:19:00;;;;;;;;;25.50;15.75;;;;;;;;5101113;27;45241;-72
2023/06/06 03:21:26;;;;;;;;;20.50;17.25;;;;;;;;5099403;27;46184;-72
2023/06/06 03:23:52;;;;;;;;;16.00;13.00;;;;;;;;5100550;27;46722;-72
2023/06/06 03:26:19;;;;;;;;;20.75;16.75;;;;;;;;5099038;27;45818;-72
2023/06/06 03:28:44;;;;;;;;;16.50;14.25;;;;;;;;5098691;27;45375;-72
2023/06/06 03:31:10;;;;;;;;;22.67;17.00;;;;;;;;5100674;27;45538;-72
2023/06/06 03:33:35;;;;;;;;;28.25;21.50;;;;;;;;5100951;27;45396;-72
2023/06/06 03:36:01;;;;;;;;;22.25;17.50;;;;;;;;5099214;27;45260;-72
2023/06/06 03:38:27;;;;;;;;;25.25;19.75;;;;;;;;5111400;27;45292;-72
2023/06/06 03:40:52;;;;;;;;;22.25;16.50;;;;;;;;5100335;27;45361;-72
2023/06/06 03:43:17;;;;;;;;;20.33;17.67;;;;;;;;5099486;27;46199;-72
2023/06/06 03:45:42;;;;;;;;;24.00;20.67;;;;;;;;5099264;27;45217;-72
2023/06/06 03:48:09;;;;;;;;;17.25;15.00;;;;;;;;5100846;27;45784;-72
2023/06/06 03:50:35;;;;;;;;;22.25;18.25;;;;;;;;5113423;27;45462;-72
2023/06/06 03:53:00;;;;;;;;;20.00;17.50;;;;;;;;5101049;27;45415;-72
2023/06/06 03:55:25;;;;;;;;;24.00;18.25;;;;;;;;5110505;27;45345;-72
2023/06/06 03:57:52;;;;;;;;;24.33;21.33;;;;;;;;5099392;27;45378;-72
2023/06/06 04:00:18;;;;;;;;;25.25;20.00;;;;;;;;5100200;27;45773;-72
2023/06/06 04:02:46;;;;;;;;;22.00;18.50;;;;;;;;5089699;27;45680;-72
2023/06/06 04:05:12;;;;;;;;;19.75;17.00;;;;;;;;5098813;27;45296;-72
2023/06/06 04:07:37;;;;;;;;;20.50;17.50;;;;;;;;5099635;27;45440;-72
2023/06/06 04:10:03;;;;;;;;;25.75;23.25;;;;;;;;5109786;27;45510;-72
2023/06/06 04:12:28;;;;;;;;;25.00;20.50;;;;;;;;5101731;27;46699;-72
2023/06/06 04:14:53;;;;;;;;;23.33;19.67;;;;;;;;5100041;27;45250;-72
2023/06/06 04:17:19;;;;;;;;;26.75;22.25;;;;;;;;5103954;27;45362;-72
2023/06/06 04:19:45;;;;;;;;;28.50;24.25;;;;;;;;5109604;27;45324;-72
2023/06/06 04:22:10;;;;;;;;;26.00;22.00;;;;;;;;5098760;27;45451;-72
2023/06/06 04:24:35;;;;;;;;;23.75;16.00;;;;;;;;5098469;27;45388;-72
2023/06/06 04:27:03;;;;;;;;;25.67;22.33;;;;;;;;5098661;27;45705;-72
2023/06/06 04:29:28;;;;;;;;;25.50;22.00;;;;;;;;5099723;27;46190;-72
2023/06/06 04:31:53;;;;;;;;;28.00;23.50;;;;;;;;5099924;27;45560;-72
2023/06/06 04:34:23;;;;;;;;;29.00;26.67;;;;;;;;5098975;27;45375;-72
2023/06/06 04:36:51;;;;;;;;;28.00;24.75;;;;;;;;5099762;27;45279;-72
2023/06/06 04:39:17;;;;;;;;;30.00;26.50;;;;;;;;5099994;27;45433;-72
2023/06/06 04:41:43;;;;;;;;;31.50;29.00;;;;;;;;5099763;27;45196;-72
2023/06/06 04:44:08;;;;;;;;;31.75;28.00;;;;;;;;5098555;27;45475;-72
2023/06/06 04:46:35;;;;;;;;;32.25;27.50;;;;;;;;5099711;27;45314;-72
2023/06/06 04:49:01;;;;;;;;;26.00;21.75;;;;;;;;5099354;27;45427;-72
2023/06/06 04:51:30;;;;;;;;;31.75;28.75;;;;;;;;5099974;27;45431;-72
2023/06/06 04:53:58;;;;;;;;;36.75;31.25;;;;;;;;5097981;27;45535;-72
2023/06/06 04:56:24;;;;;;;;;29.75;25.00;;;;;;;;5099562;27;45407;-72
2023/06/06 04:58:52;;;;;;;;;31.25;28.50;;;;;;;;5098750;27;45501;-72
2023/06/06 05:01:17;;;;;;;;;34.00;29.25;;;;;;;;5096467;27;46312;-72
2023/06/06 05:03:42;;;;;;;;;27.75;24.75;;;;;;;;5091686;27;45624;-72
2023/06/06 05:06:08;;;;;;;;;31.67;26.67;;;;;;;;5099675;27;45294;-72
2023/06/06 05:08:39;;;;;;;;;38.00;31.67;;;;;;;;5098233;27;45594;-72
2023/06/06 05:11:05;;;;;;;;;37.25;31.50;;;;;;;;5099416;27;45498;-72
2023/06/06 05:13:30;;;;;;;;;42.67;33.00;;;;;;;;5098502;27;45452;-72
2023/06/06 05:15:55;;;;;;;;;34.67;29.00;;;;;;;;5099277;27;45446;-72
2023/06/06 05:18:20;;;;;;;;;35.00;30.33;;;;;;;;5099650;27;45623;-72
2023/06/06 05:20:45;;;;;;;;;38.33;30.67;;;;;;;;5098593;27;45500;-72
2023/06/06 05:23:11;;;;;;;;;37.67;33.00;;;;;;;;5098957;27;45522;-72
2023/06/06 05:25:36;;;;;;;;;36.00;30.67;;;;;;;;5097884;27;45383;-72
2023/06/06 05:28:01;;;;;;;;;31.67;27.33;;;;;;;;5099908;27;45251;-72
2023/06/06 05:30:26;;;;;;;;;36.50;32.00;;;;;;;;5102598;27;45439;-72
2023/06/06 05:32:52;;;;;;;;;30.00;27.67;;;;;;;;5101354;27;45376;-72
2023/06/06 05:35:17;;;;;;;;;42.25;30.25;;;;;;;;5115926;27;45332;-72
2023/06/06 05:37:42;;;;;;;;;36.67;29.67;;;;;;;;5102659;27;45370;-72
2023/06/06 05:40:09;;;;;;;;;41.00;32.67;;;;;;;;5101627;27;46273;-72
2023/06/06 05:42:34;;;;;;;;;32.00;28.75;;;;;;;;5101223;27;45181;-72
2023/06/06 05:44:59;;;;;;;;;36.67;32.00;;;;;;;;5114415;27;45325;-72
2023/06/06 05:47:25;;;;;;;;;35.67;32.00;;;;;;;;5102445;27;45586;-72
2023/06/06 05:49:50;;;;;;;;;36.67;30.33;;;;;;;;5101863;27;45422;-72
2023/06/06 05:52:15;;;;;;;;;33.33;29.33;;;;;;;;5102342;27;45286;-72
2023/06/06 05:54:40;;;;;;;;;37.67;31.67;;;;;;;;5101203;27;45260;-72
2023/06/06 05:57:17;;;;;;;;;40.00;34.00;;;;;;;;5112812;27;45444;-72
2023/06/06 05:59:42;;;;;;;;;35.00;29.75;;;;;;;;5101544;27;45701;-72
2023/06/06 06:02:07;;;;;;;;;38.00;33.00;;;;;;;;5101860;27;45562;-72
2023/06/06 06:04:32;;;;;;;;;36.67;29.33;;;;;;;;5101912;27;45265;-72
2023/06/06 06:06:57;;;;;;;;;28.33;27.00;;;;;;;;5102085;27;45613;-72
2023/06/06 06:09:23;;;;;;;;;39.33;33.00;;;;;;;;5102555;27;45633;-72
2023/06/06 06:11:48;;;;;;;;;36.00;32.00;;;;;;;;5113542;27;45349;-74
2023/06/06 06:14:13;;;;;;;;;39.33;32.00;;;;;;;;5104093;27;45337;-73
2023/06/06 06:16:38;;;;;;;;;39.67;33.00;;;;;;;;5093254;27;45398;-73
2023/06/06 06:19:05;;;;;;;;;37.00;31.67;;;;;;;;5096048;27;45457;-72
2023/06/06 06:21:30;;;;;;;;;36.00;30.75;;;;;;;;5101668;27;45370;-73
2023/06/06 06:23:55;;;;;;;;;37.00;31.00;;;;;;;;5099139;27;45350;-73
2023/06/06 06:26:20;;;;;;;;;35.33;31.33;;;;;;;;5103220;27;45358;-73
2023/06/06 06:28:46;;;;;;;;;33.33;28.67;;;;;;;;5100972;27;45518;-70
2023/06/06 06:31:12;;;;;;;;;36.75;30.25;;;;;;;;5091538;27;45799;-71
2023/06/06 06:33:37;;;;;;;;;36.50;31.75;;;;;;;;5097772;27;45401;-71
2023/06/06 06:36:02;;;;;;;;;32.50;26.25;;;;;;;;5100783;27;45449;-70
2023/06/06 06:38:28;;;;;;;;;35.25;31.25;;;;;;;;5100338;27;47475;-70
2023/06/06 06:40:53;;;;;;;;;47.00;35.00;;;;;;;;5096442;27;45509;-68
2023/06/06 06:43:18;;;;;;;;;37.00;32.33;;;;;;;;5099011;27;45502;-68
2023/06/06 06:45:43;;;;;;;;;35.33;31.67;;;;;;;;5095022;27;46960;-68
2023/06/06 06:48:08;;;;;;;;;31.33;27.67;;;;;;;;5090359;27;45439;-68
2023/06/06 06:50:34;;;;;;;;;46.67;34.00;;;;;;;;5094774;27;45643;-70
2023/06/06 06:53:02;;;;;;;;;41.50;33.25;;;;;;;;5100120;27;45234;-69
2023/06/06 06:55:27;;;;;;;;;39.50;33.75;;;;;;;;5100165;27;45382;-69
2023/06/06 06:57:52;;;;;;;;;38.33;31.33;;;;;;;;5089620;27;46585;-68
2023/06/06 07:00:21;;;;;;;;;39.75;33.25;;;;;;;;5101728;27;45732;-69
2023/06/06 07:02:47;;;;;;;;;38.25;32.75;;;;;;;;5101520;27;45530;-69
2023/06/06 07:05:12;;;;;;;;;34.67;28.67;;;;;;;;5099313;27;45337;-69
2023/06/06 07:08:03;;;;;;;;;40.25;32.75;;;;;;;;5092188;27;45407;-69
2023/06/06 07:10:29;;;;;;;;;46.00;35.00;;;;;;;;5084980;27;45856;-70
2023/06/06 07:12:54;;;;;;;;;46.25;36.25;;;;;;;;5097799;27;45535;-69
2023/06/06 07:15:19;;;;;;;;;37.67;30.67;;;;;;;;5100355;27;45255;-70
2023/06/06 07:17:51;;;;;;;;;38.00;33.00;;;;;;;;5101658;27;45477;-69
2023/06/06 07:20:18;;;;;;;;;34.75;30.50;;;;;;;;5087626;27;45576;-69
2023/06/06 07:22:43;;;;;;;;;37.50;30.75;;;;;;;;5098531;27;45524;-70
2023/06/06 07:25:09;;;;;;;;;45.50;36.25;;;;;;;;5098790;27;45500;-67
2023/06/06 07:27:35;;;;;;;;;37.50;32.50;;;;;;;;5099831;27;46457;-69
2023/06/06 07:30:06;;;;;;;;;43.25;34.50;;;;;;;;5100684;27;45450;-69
2023/06/06 07:32:31;;;;;;;;;39.50;33.00;;;;;;;;5101130;27;45527;-68
2023/06/06 07:34:57;;;;;;;;;39.00;33.00;;;;;;;;5107960;27;45420;-69
2023/06/06 07:37:22;;;;;;;;;41.75;34.25;;;;;;;;5097829;27;47181;-68
2023/06/06 07:39:47;;;;;;;;;38.50;33.00;;;;;;;;5098913;27;45348;-68
2023/06/06 07:42:12;;;;;;;;;41.33;32.00;;;;;;;;5096635;27;45234;-69
2023/06/06 07:44:37;;;;;;;;;40.67;34.00;;;;;;;;5099842;27;45355;-69
2023/06/06 07:47:03;;;;;;;;;33.75;32.00;;;;;;;;5098559;27;48040;-70
2023/06/06 07:49:28;;;;;;;;;33.00;26.75;;;;;;;;5098754;27;45524;-69
2023/06/06 07:51:53;;;;;;;;;39.33;33.67;;;;;;;;5097936;27;45361;-69
2023/06/06 07:54:18;;;;;;;;;40.67;35.00;;;;;;;;5098199;27;45974;-69
2023/06/06 07:56:44;;;;;;;;;34.67;31.67;;;;;;;;5098026;27;48416;-69
2023/06/06 07:59:10;;;;;;;;;39.50;34.50;;;;;;;;5097694;27;45592;-71
2023/06/06 08:01:35;;;;;;;;;38.50;32.50;;;;;;;;5092196;27;45364;-71
2023/06/06 08:04:01;;;;;;;;;38.50;33.00;;;;;;;;5100119;27;45328;-71
2023/06/06 08:06:32;;;;;;;;;42.00;32.00;;;;;;;;5099352;27;45321;-71
2023/06/06 08:08:59;;;;;;;;;37.25;31.25;;;;;;;;5099713;27;45668;-71
2023/06/06 08:11:24;;;;;;;;;45.00;35.75;;;;;;;;5097966;27;45287;-70
2023/06/06 08:13:50;;;;;;;;;38.75;31.75;;;;;;;;5096725;27;45791;-71
2023/06/06 08:16:15;;;;;;;;;39.50;34.75;;;;;;;;5097919;27;47167;-71
2023/06/06 08:18:40;;;;;;;;;43.00;35.67;;;;;;;;5106353;27;45328;-71
2023/06/06 08:21:05;;;;;;;;;48.25;34.75;;;;;;;;5092726;27;45434;-71
2023/06/06 08:23:30;;;;;;;;;41.00;35.00;;;;;;;;5096876;27;45456;-72
2023/06/06 08:25:57;;;;;;;;;34.67;32.00;;;;;;;;5099461;27;45592;-70
2023/06/06 08:28:23;;;;;;;;;40.00;31.00;;;;;;;;5096897;27;45421;-71
2023/06/06 08:30:49;;;;;;;;;40.25;33.50;;;;;;;;5096926;27;45323;-71
2023/06/06 08:33:14;;;;;;;;;38.25;31.25;;;;;;;;5093787;27;45199;-70
2023/06/06 08:35:39;;;;;;;;;38.67;33.67;;;;;;;;5098217;27;45518;-71
2023/06/06 08:38:05;;;;;;;;;36.00;33.00;;;;;;;;5098148;27;45464;-71
2023/06/06 08:40:30;;;;;;;;;45.25;35.25;;;;;;;;5099175;27;45382;-71
2023/06/06 08:42:56;;;;;;;;;34.00;30.33;;;;;;;;5096772;27;45438;-71
2023/06/06 08:45:21;;;;;;;;;32.75;30.00;;;;;;;;5098682;27;46449;-71
2023/06/06 08:47:48;;;;;;;;;41.25;34.25;;;;;;;;5099923;27;45292;-70
2023/06/06 08:50:13;;;;;;;;;37.00;31.25;;;;;;;;5099691;27;45395;-71
2023/06/06 08:52:40;;;;;;;;;38.75;32.00;;;;;;;;5098898;27;45866;-70
2023/06/06 08:55:06;;;;;;;;;38.00;33.50;;;;;;;;5097982;27;45396;-71
2023/06/06 08:57:32;;;;;;;;;35.00;32.25;;;;;;;;5099660;27;45290;-71
2023/06/06 08:59:57;;;;;;;;;36.00;29.00;;;;;;;;5098665;27;45389;-70
2023/06/06 09:02:22;;;;;;;;;35.75;32.25;;;;;;;;5098891;27;45488;-71
2023/06/06 09:04:48;;;;;;;;;43.00;35.00;;;;;;;;5102036;27;46255;-71
2023/06/06 09:07:14;;;;;;;;;41.75;32.50;;;;;;;;5094316;27;45495;-71
2023/06/06 09:09:40;;;;;;;;;43.50;34.50;;;;;;;;5101353;27;45329;-71
2023/06/06 09:12:06;;;;;;;;;43.50;34.75;;;;;;;;5103046;27;45292;-71
2023/06/06 09:14:32;;;;;;;;;36.50;32.50;;;;;;;;5100229;27;47609;-71
2023/06/06 09:16:58;;;;;;;;;32.25;30.00;;;;;;;;5102716;27;45425;-71
2023/06/06 09:19:24;;;;;;;;;39.75;34.00;;;;;;;;5101668;27;45324;-71
2023/06/06 09:21:49;;;;;;;;;41.00;33.00;;;;;;;;5100820;27;46097;-71
2023/06/06 09:24:18;;;;;;;;;36.25;30.75;;;;;;;;5100421;27;45511;-71
2023/06/06 09:26:43;;;;;;;;;29.50;28.25;;;;;;;;5095114;27;45305;-71
2023/06/06 09:29:11;;;;;;;;;35.67;30.33;;;;;;;;5100463;27;45236;-71
2023/06/06 09:31:40;;;;;;;;;35.00;29.75;;;;;;;;5102003;27;45859;-71
2023/06/06 09:34:06;;;;;;;;;33.50;29.75;;;;;;;;5106254;27;46285;-72
2023/06/06 09:36:32;;;;;;;;;35.50;30.75;;;;;;;;5101349;27;45269;-71
2023/06/06 09:39:13;;;;;;;;;29.50;24.75;;;;;;;;5100022;27;45335;-71
2023/06/06 09:41:45;;;;;;;;;32.75;27.50;;;;;;;;5093809;27;45301;-71
2023/06/06 09:44:18;;;;;;;;;37.00;32.50;;;;;;;;5101098;27;45338;-71
2023/06/06 09:46:43;;;;;;;;;31.75;30.00;;;;;;;;5102088;27;45536;-71
2023/06/06 09:49:10;;;;;;;;;33.33;30.67;;;;;;;;5102262;27;45576;-71
2023/06/06 09:51:35;;;;;;;;;33.50;30.25;;;;;;;;5102530;27;45495;-71
2023/06/06 09:54:01;;;;;;;;;29.00;25.67;;;;;;;;5100793;27;47914;-71
2023/06/06 09:56:29;;;;;;;;;28.25;23.75;;;;;;;;5100476;27;45204;-71
2023/06/06 09:58:55;;;;;;;;;28.75;25.25;;;;;;;;5101170;27;45282;-71
2023/06/06 10:01:26;;;;;;;;;26.75;24.50;;;;;;;;5099301;27;46756;-71
2023/06/06 10:03:52;;;;;;;;;39.25;32.25;;;;;;;;5095089;27;46429;-70
2023/06/06 10:06:17;;;;;;;;;30.00;25.25;;;;;;;;5101175;27;45988;-71
2023/06/06 10:08:43;;;;;;;;;30.25;28.00;;;;;;;;5101083;27;46413;-71
2023/06/06 10:11:08;;;;;;;;;26.75;25.00;;;;;;;;5100081;27;46057;-71
2023/06/06 10:13:34;;;;;;;;;31.25;28.00;;;;;;;;5101979;27;45381;-71
2023/06/06 10:15:59;;;;;;;;;27.25;20.75;;;;;;;;5100787;27;45313;-71
2023/06/06 10:18:25;;;;;;;;;28.67;22.67;;;;;;;;5100509;27;45293;-71
2023/06/06 10:20:52;;;;;;;;;29.25;26.00;;;;;;;;5100185;27;47143;-71
2023/06/06 10:23:17;;;;;;;;;30.25;26.25;;;;;;;;5100522;27;45600;-70
2023/06/06 10:25:43;;;;;;;;;30.00;28.33;;;;;;;;5107773;27;45434;-70
2023/06/06 10:28:20;;;;;;;;;26.50;23.25;;;;;;;;5106604;27;45434;-70
2023/06/06 10:30:48;;;;;;;;;35.75;30.00;;;;;;;;5101196;27;45340;-70
2023/06/06 10:33:25;;;;;;;;;32.00;26.00;;;;;;;;5101415;27;45432;-70
2023/06/06 10:35:58;;;;;;;;;28.25;24.25;;;;;;;;5100279;27;45480;-70
2023/06/06 10:38:23;;;;;;;;;28.25;26.25;;;;;;;;5101400;27;45356;-70
2023/06/06 10:40:51;;;;;;;;;33.00;24.67;;;;;;;;5114887;27;45542;-70
2023/06/06 10:43:41;;;;;;;;;30.75;27.00;;;;;;;;5101689;27;46086;-70
2023/06/06 10:46:06;;;;;;;;;25.25;23.25;;;;;;;;5098469;27;45479;-70
2023/06/06 10:48:35;;;;;;;;;28.00;24.00;;;;;;;;5100325;27;45381;-70
2023/06/06 10:51:01;;;;;;;;;32.75;25.75;;;;;;;;5101292;27;45370;-71
2023/06/06 10:53:26;;;;;;;;;30.33;25.67;;;;;;;;5100051;27;46030;-71
2023/06/06 10:55:51;;;;;;;;;30.00;27.33;;;;;;;;5101608;27;45452;-71
2023/06/06 10:58:18;;;;;;;;;26.33;23.33;;;;;;;;5099828;27;45304;-71
2023/06/06 11:00:44;;;;;;;;;24.75;22.25;;;;;;;;5100127;27;45342;-71
2023/06/06 11:03:10;;;;;;;;;30.00;27.75;;;;;;;;5100863;27;46478;-71
2023/06/06 11:05:54;;;;;;;;;24.00;21.75;;;;;;;;5099522;27;45213;-71
2023/06/06 11:08:30;;;;;;;;;21.25;18.50;;;;;;;;5100864;27;45425;-71
2023/06/06 11:11:13;;;;;;;;;27.50;23.25;;;;;;;;5110773;27;45970;-71
2023/06/06 11:13:47;;;;;;;;;21.75;20.00;;;;;;;;5098407;27;47377;-71
2023/06/06 11:16:13;;;;;;;;;31.50;27.25;;;;;;;;5098914;27;45302;-71
2023/06/06 11:18:41;;;;;;;;;21.33;19.67;;;;;;;;5100950;27;45452;-71
2023/06/06 11:21:07;;;;;;;;;26.00;24.25;;;;;;;;5100623;27;45522;-72
2023/06/06 11:23:41;;;;;;;;;26.00;23.25;;;;;;;;5098268;27;47384;-71
2023/06/06 11:26:10;;;;;;;;;22.75;20.50;;;;;;;;5100084;27;45497;-72
2023/06/06 11:28:35;;;;;;;;;24.25;20.75;;;;;;;;5099817;27;45360;-71
2023/06/06 11:31:02;;;;;;;;;24.75;21.75;;;;;;;;5099450;27;46165;-71
2023/06/06 11:33:27;;;;;;;;;19.75;18.75;;;;;;;;5100236;27;45392;-71
2023/06/06 11:35:54;;;;;;;;;23.00;23.00;;;;;;;;5100954;27;45285;-71
2023/06/06 11:38:19;;;;;;;;;21.50;18.75;;;;;;;;5099206;27;45267;-72
2023/06/06 11:40:44;;;;;;;;;22.50;19.50;;;;;;;;5099003;27;45263;-71
2023/06/06 11:43:10;;;;;;;;;28.00;25.75;;;;;;;;5099075;27;47918;-71
2023/06/06 11:45:35;;;;;;;;;16.00;15.25;;;;;;;;5097070;27;45513;-71
2023/06/06 11:48:01;;;;;;;;;20.67;17.00;;;;;;;;5099840;27;45287;-71
2023/06/06 11:50:29;;;;;;;;;18.25;16.50;;;;;;;;5113683;27;45299;-71
2023/06/06 11:52:54;;;;;;;;;22.75;21.00;;;;;;;;5086148;27;47418;-71
2023/06/06 11:55:19;;;;;;;;;23.50;21.75;;;;;;;;5099482;27;45500;-71
2023/06/06 11:57:45;;;;;;;;;23.25;20.50;;;;;;;;5100279;27;45348;-71
2023/06/06 12:00:12;;;;;;;;;21.67;20.33;;;;;;;;5099721;27;46738;-71
2023/06/06 12:02:37;;;;;;;;;23.75;20.50;;;;;;;;5099713;27;45645;-71
2023/06/06 12:05:04;;;;;;;;;15.67;13.67;;;;;;;;5100414;27;45373;-71
2023/06/06 12:07:29;;;;;;;;;21.25;18.00;;;;;;;;5100340;27;45485;-71
2023/06/06 12:09:59;;;;;;;;;20.50;19.25;;;;;;;;5098957;27;45252;-71
2023/06/06 12:12:24;;;;;;;;;20.25;17.00;;;;;;;;5099857;27;45341;-71
2023/06/06 12:14:56;;;;;;;;;21.25;18.50;;;;;;;;5099225;27;45266;-71
2023/06/06 12:17:24;;;;;;;;;19.25;18.00;;;;;;;;5100201;27;45484;-71
2023/06/06 12:19:52;;;;;;;;;21.75;20.50;;;;;;;;5097991;27;45556;-71
2023/06/06 12:22:27;;;;;;;;;21.00;19.25;;;;;;;;5098034;27;46756;-71
2023/06/06 12:24:52;;;;;;;;;22.25;19.25;;;;;;;;5099755;27;45266;-71
2023/06/06 12:27:26;;;;;;;;;19.33;19.00;;;;;;;;5098311;27;45517;-71
2023/06/06 12:29:54;;;;;;;;;15.25;15.25;;;;;;;;5099211;27;45250;-71
2023/06/06 12:32:26;;;;;;;;;19.50;18.25;;;;;;;;5097785;27;46666;-71
2023/06/06 12:35:01;;;;;;;;;16.00;15.75;;;;;;;;5087252;27;45454;-71
2023/06/06 12:37:43;;;;;;;;;21.00;20.00;;;;;;;;5099967;27;45267;-71
2023/06/06 12:40:12;;;;;;;;;21.25;18.50;;;;;;;;5102551;27;45463;-71
2023/06/06 12:42:38;;;;;;;;;19.75;19.75;;;;;;;;5103363;27;46121;-71
2023/06/06 12:45:04;;;;;;;;;19.25;18.75;;;;;;;;5102857;27;45580;-71
2023/06/06 12:47:29;;;;;;;;;19.75;16.50;;;;;;;;5103216;27;45215;-71
2023/06/06 12:49:54;;;;;;;;;13.33;13.33;;;;;;;;5102227;27;45264;-71
2023/06/06 12:52:20;;;;;;;;;18.50;15.75;;;;;;;;5100639;27;47288;-71
2023/06/06 12:54:45;;;;;;;;;21.00;18.50;;;;;;;;5101012;27;45214;-71
2023/06/06 12:57:11;;;;;;;;;19.00;17.75;;;;;;;;5101760;27;45268;-71
2023/06/06 12:59:41;;;;;;;;;19.00;17.75;;;;;;;;5102352;27;45476;-71
2023/06/06 13:02:07;;;;;;;;;17.00;15.00;;;;;;;;5096923;27;46093;-71
2023/06/06 13:04:36;;;;;;;;;17.75;16.50;;;;;;;;5103288;27;45353;-71
2023/06/06 13:07:02;;;;;;;;;16.00;14.25;;;;;;;;5102598;27;45298;-71
2023/06/06 13:09:27;;;;;;;;;15.75;13.50;;;;;;;;5101906;27;45478;-71
2023/06/06 13:11:53;;;;;;;;;18.00;16.00;;;;;;;;5101424;27;46161;-71
2023/06/06 13:14:18;;;;;;;;;10.75;10.00;;;;;;;;5101657;27;46856;-71
2023/06/06 13:16:43;;;;;;;;;16.00;13.33;;;;;;;;5102206;27;45475;-71
2023/06/06 13:19:10;;;;;;;;;16.00;15.00;;;;;;;;5101731;27;45468;-71
2023/06/06 13:21:36;;;;;;;;;15.00;13.75;;;;;;;;5099393;27;45675;-70
2023/06/06 13:24:01;;;;;;;;;17.00;15.67;;;;;;;;5101154;27;45378;-71
2023/06/06 13:26:26;;;;;;;;;14.25;13.50;;;;;;;;5101620;27;45335;-71
2023/06/06 13:28:51;;;;;;;;;9.00;9.00;;;;;;;;5101441;27;46300;-71
2023/06/06 13:31:17;;;;;;;;;13.33;12.67;;;;;;;;5099901;27;45295;-71
2023/06/06 13:33:42;;;;;;;;;13.00;10.25;;;;;;;;5100284;27;45383;-71
2023/06/06 13:36:07;;;;;;;;;12.33;12.33;;;;;;;;5101482;27;45729;-71
2023/06/06 13:38:32;;;;;;;;;9.67;9.67;;;;;;;;5102499;27;45675;-71
2023/06/06 13:40:57;;;;;;;;;5.33;5.33;;;;;;;;5101110;27;47356;-71
2023/06/06 13:43:23;;;;;;;;;11.50;11.25;;;;;;;;5100014;27;45449;-71
2023/06/06 13:45:48;;;;;;;;;10.25;9.75;;;;;;;;5098269;27;45796;-71
2023/06/06 13:48:13;;;;;;;;;10.00;10.00;;;;;;;;5099874;27;45826;-71
2023/06/06 13:50:38;;;;;;;;;12.00;12.00;;;;;;;;5101226;27;46295;-72
2023/06/06 13:53:04;;;;;;;;;11.00;10.33;;;;;;;;5101384;27;45406;-71
2023/06/06 13:55:30;;;;;;;;;10.75;9.25;;;;;;;;5102322;27;45365;-71
2023/06/06 13:57:58;;;;;;;;;11.25;11.25;;;;;;;;5102106;27;45937;-71
2023/06/06 14:00:23;;;;;;;;;10.50;9.75;;;;;;;;5102137;27;46120;-71
2023/06/06 14:02:48;;;;;;;;;13.50;12.25;;;;;;;;5094475;27;45909;-71
2023/06/06 14:05:14;;;;;;;;;11.00;10.00;;;;;;;;5102124;27;45346;-71
2023/06/06 14:07:39;;;;;;;;;14.75;14.50;;;;;;;;5102545;27;45297;-71
2023/06/06 14:10:06;;;;;;;;;9.75;9.00;;;;;;;;5100612;27;48229;-71
2023/06/06 14:12:31;;;;;;;;;11.50;11.25;;;;;;;;5101507;27;45291;-71
2023/06/06 14:14:56;;;;;;;;;13.00;12.00;;;;;;;;5099430;27;45411;-71